createdAt,value
2023-03-04T00:01:03.797Z,101476.94
2023-03-04T00:03:31.506Z,101482.16
2023-03-04T00:05:59.143Z,101484.69
2023-03-04T00:08:26.771Z,101478.47
2023-03-04T00:10:54.949Z,101485.53
2023-03-04T00:13:22.667Z,101483.97
2023-03-04T00:15:50.555Z,101477.72
2023-03-04T00:18:21.121Z,101479.19
2023-03-04T00:20:49.736Z,101485.75
2023-03-04T00:23:20.242Z,101488.38
2023-03-04T00:25:48.026Z,101479.38
2023-03-04T00:28:15.788Z,101486.97
2023-03-04T00:30:43.481Z,101486.94
2023-03-04T00:33:11.027Z,101483.78
2023-03-04T00:35:40.149Z,101489.47
2023-03-04T00:38:07.894Z,101484.44
2023-03-04T00:40:35.596Z,101487.69
2023-03-04T00:43:03.895Z,101493.59
2023-03-04T00:45:31.617Z,101485.84
2023-03-04T00:47:59.289Z,101484.44
2023-03-04T00:50:27.064Z,101478.63
2023-03-04T00:52:56.013Z,101490.97
2023-03-04T00:55:23.724Z,101485.13
2023-03-04T00:57:51.466Z,101484.38
2023-03-04T01:00:19.787Z,101486.09
2023-03-04T01:02:48.835Z,101488.25
2023-03-04T01:05:18.135Z,101482.53
2023-03-04T01:07:45.903Z,101477.25
2023-03-04T01:10:16.247Z,101481.03
2023-03-04T01:12:44.004Z,101482.94
2023-03-04T01:15:13.498Z,101471.03
2023-03-04T01:17:41.280Z,101479.78
2023-03-04T01:20:10.135Z,101474.00
2023-03-04T01:22:37.791Z,101465.31
2023-03-04T01:25:06.183Z,101464.78
2023-03-04T01:27:35.120Z,101468.16
2023-03-04T01:30:02.617Z,101466.25
2023-03-04T01:32:30.213Z,101455.84
2023-03-04T01:34:57.705Z,101450.03
2023-03-04T01:37:25.246Z,101453.09
2023-03-04T01:39:52.733Z,101451.16
2023-03-04T01:42:22.523Z,101441.66
2023-03-04T01:44:51.960Z,101434.31
2023-03-04T01:47:20.206Z,101425.84
2023-03-04T01:49:49.005Z,101428.91
2023-03-04T01:52:16.484Z,101418.72
2023-03-04T01:54:43.960Z,101423.53
2023-03-04T01:57:18.132Z,101424.31
2023-03-04T01:59:46.460Z,101416.72
2023-03-04T02:02:15.531Z,101429.00
2023-03-04T02:04:43.530Z,101422.78
2023-03-04T02:07:11.116Z,101422.22
2023-03-04T02:09:38.616Z,101415.03
2023-03-04T02:12:06.654Z,101415.81
2023-03-04T02:14:34.173Z,101419.00
2023-03-04T02:17:01.784Z,101423.31
2023-03-04T02:19:42.524Z,101417.50
2023-03-04T02:22:10.168Z,101419.47
2023-03-04T02:24:41.460Z,101413.66
2023-03-04T02:27:10.611Z,101406.94
2023-03-04T02:29:38.254Z,101415.94
2023-03-04T02:32:06.074Z,101402.09
2023-03-04T02:34:35.452Z,101400.78
2023-03-04T02:37:03.680Z,101400.78
2023-03-04T02:39:33.532Z,101393.63
2023-03-04T02:42:02.488Z,101399.47
2023-03-04T02:44:34.625Z,101403.38
2023-03-04T02:47:02.304Z,101397.91
2023-03-04T02:49:31.507Z,101396.31
2023-03-04T02:52:03.303Z,101401.66
2023-03-04T02:54:31.294Z,101397.13
2023-03-04T02:57:01.738Z,101398.28
2023-03-04T02:59:29.556Z,101396.91
2023-03-04T03:01:58.882Z,101389.44
2023-03-04T03:04:27.434Z,101390.06
2023-03-04T03:06:55.012Z,101394.97
2023-03-04T03:09:22.714Z,101393.47
2023-03-04T03:11:50.293Z,101392.34
2023-03-04T03:14:17.814Z,101390.06
2023-03-04T03:16:45.328Z,101393.97
2023-03-04T03:19:14.395Z,101390.53
2023-03-04T03:21:41.856Z,101384.22
2023-03-04T03:24:09.556Z,101387.47
2023-03-04T03:26:37.300Z,101386.41
2023-03-04T03:29:04.812Z,101387.28
2023-03-04T03:31:32.289Z,101387.56
2023-03-04T03:33:59.811Z,101380.00
2023-03-04T03:36:28.910Z,101389.72
2023-03-04T03:38:56.544Z,101394.69
2023-03-04T03:41:24.065Z,101392.78
2023-03-04T03:43:51.540Z,101384.22
2023-03-04T03:46:19.018Z,101378.81
2023-03-04T03:48:46.504Z,101383.78
2023-03-04T03:51:14.049Z,101375.06
2023-03-04T03:53:42.948Z,101378.91
2023-03-04T03:56:10.434Z,101376.56
2023-03-04T03:58:37.939Z,101373.03
2023-03-04T04:01:05.789Z,101371.16
2023-03-04T04:03:33.294Z,101376.66
2023-03-04T04:06:00.805Z,101375.88
2023-03-04T04:08:28.632Z,101370.25
2023-03-04T04:11:08.553Z,101370.56
2023-03-04T04:13:38.883Z,101363.22
2023-03-04T04:16:07.872Z,101350.38
2023-03-04T04:18:35.377Z,101360.56
2023-03-04T04:21:02.982Z,101361.75
2023-03-04T04:23:30.506Z,101364.06
2023-03-04T04:25:59.828Z,101371.66
2023-03-04T04:28:27.311Z,101363.09
2023-03-04T04:30:54.858Z,101367.66
2023-03-04T04:33:22.480Z,101362.72
2023-03-04T04:35:50.004Z,101362.59
2023-03-04T04:38:17.618Z,101369.63
2023-03-04T04:40:45.130Z,101366.97
2023-03-04T04:43:13.989Z,101366.44
2023-03-04T04:45:42.282Z,101367.75
2023-03-04T04:48:09.875Z,101362.69
2023-03-04T04:50:37.407Z,101360.84
2023-03-04T04:53:04.887Z,101356.53
2023-03-04T04:55:33.282Z,101360.69
2023-03-04T04:58:00.810Z,101366.34
2023-03-04T05:00:29.785Z,101355.28
2023-03-04T05:02:57.304Z,101356.94
2023-03-04T05:05:24.879Z,101359.66
2023-03-04T05:07:52.365Z,101355.13
2023-03-04T05:10:19.888Z,101349.63
2023-03-04T05:12:47.380Z,101355.81
2023-03-04T05:15:14.860Z,101362.53
2023-03-04T05:17:43.710Z,101357.09
2023-03-04T05:20:12.218Z,101359.50
2023-03-04T05:22:39.744Z,101364.88
2023-03-04T05:25:07.829Z,101365.31
2023-03-04T05:27:35.350Z,101356.59
2023-03-04T05:30:02.861Z,101361.31
2023-03-04T05:32:30.419Z,101363.97
2023-03-04T05:34:59.715Z,101351.72
2023-03-04T05:37:27.182Z,101353.19
2023-03-04T05:39:54.688Z,101354.31
2023-03-04T05:42:22.218Z,101352.75
2023-03-04T05:44:49.755Z,101357.13
2023-03-04T05:47:17.324Z,101352.09
2023-03-04T05:49:45.167Z,101359.06
2023-03-04T05:52:14.374Z,101363.06
2023-03-04T05:54:41.878Z,101360.53
2023-03-04T05:57:09.395Z,101364.91
2023-03-04T05:59:36.957Z,101364.72
2023-03-04T06:02:04.482Z,101365.66
2023-03-04T06:04:32.118Z,101355.38
2023-03-04T06:06:59.828Z,101361.13
2023-03-04T06:09:28.765Z,101363.41
2023-03-04T06:11:56.324Z,101361.72
2023-03-04T06:14:24.164Z,101362.56
2023-03-04T06:16:51.808Z,101369.00
2023-03-04T06:19:19.602Z,101370.81
2023-03-04T06:21:47.810Z,101374.56
2023-03-04T06:24:15.517Z,101380.44
2023-03-04T06:26:44.527Z,101389.66
2023-03-04T06:29:12.036Z,101388.63
2023-03-04T06:31:41.690Z,101389.97
2023-03-04T06:34:09.418Z,101397.84
2023-03-04T06:36:36.981Z,101386.28
2023-03-04T06:39:04.863Z,101398.03
2023-03-04T06:41:32.541Z,101406.66
2023-03-04T06:44:01.818Z,101404.81
2023-03-04T06:46:30.557Z,101409.81
2023-03-04T06:48:58.435Z,101412.94
2023-03-04T06:51:26.139Z,101412.66
2023-03-04T06:53:53.946Z,101409.94
2023-03-04T06:56:21.716Z,101401.72
2023-03-04T06:58:49.302Z,101405.09
2023-03-04T07:01:19.983Z,101410.88
2023-03-04T07:03:48.344Z,101408.94
2023-03-04T07:06:17.650Z,101422.19
2023-03-04T07:08:45.737Z,101409.56
2023-03-04T07:11:13.936Z,101424.28
2023-03-04T07:13:41.500Z,101415.91
2023-03-04T07:16:10.922Z,101417.13
2023-03-04T07:18:40.077Z,101416.53
2023-03-04T07:21:08.710Z,101422.38
2023-03-04T07:23:36.656Z,101430.13
2023-03-04T07:26:04.516Z,101423.72
2023-03-04T07:28:32.084Z,101437.34
2023-03-04T07:31:09.500Z,101431.81
2023-03-04T07:33:37.047Z,101439.06
2023-03-04T07:36:06.543Z,101438.63
2023-03-04T07:38:34.290Z,101445.22
2023-03-04T07:41:02.269Z,101432.41
2023-03-04T07:43:30.041Z,101438.59
2023-03-04T07:46:01.807Z,101433.22
2023-03-04T07:48:29.652Z,101433.88
2023-03-04T07:51:10.229Z,101439.53
2023-03-04T07:53:38.636Z,101431.75
2023-03-04T07:56:08.334Z,101445.38
2023-03-04T07:58:35.951Z,101437.38
2023-03-04T08:01:09.895Z,101441.22
2023-03-04T08:03:37.387Z,101441.75
2023-03-04T08:06:07.857Z,101440.84
2023-03-04T08:08:35.557Z,101444.81
2023-03-04T08:11:05.831Z,101441.00
2023-03-04T08:13:33.320Z,101447.72
2023-03-04T08:16:00.846Z,101447.56
2023-03-04T08:18:28.388Z,101451.34
2023-03-04T08:20:55.952Z,101437.97
2023-03-04T08:23:25.521Z,101442.22
2023-03-04T08:25:53.268Z,101450.84
2023-03-04T08:28:20.779Z,101445.97
2023-03-04T08:30:53.828Z,101449.53
2023-03-04T08:33:21.365Z,101451.34
2023-03-04T08:35:51.205Z,101461.41
2023-03-04T08:38:18.828Z,101448.91
2023-03-04T08:40:53.480Z,101458.59
2023-03-04T08:43:21.846Z,101461.50
2023-03-04T08:45:49.821Z,101457.91
2023-03-04T08:48:19.332Z,101464.75
2023-03-04T08:50:47.535Z,101463.16
2023-03-04T08:53:15.683Z,101464.25
2023-03-04T08:55:43.802Z,101461.88
2023-03-04T08:58:12.926Z,101461.63
2023-03-04T09:00:43.782Z,101459.72
2023-03-04T09:04:04.549Z,101459.00
2023-03-04T09:06:32.052Z,101451.44
2023-03-04T09:08:59.583Z,101461.13
2023-03-04T09:11:27.056Z,101455.84
2023-03-04T09:13:55.877Z,101451.13
2023-03-04T09:16:23.843Z,101450.81
2023-03-04T09:18:51.380Z,101454.97
2023-03-04T09:21:18.866Z,101450.88
2023-03-04T09:23:46.568Z,101445.66
2023-03-04T09:26:16.182Z,101451.63
2023-03-04T09:28:43.738Z,101450.31
2023-03-04T09:31:15.786Z,101446.59
2023-03-04T09:33:43.336Z,101443.16
2023-03-04T09:36:11.735Z,101445.25
2023-03-04T09:38:39.535Z,101448.97
2023-03-04T09:41:08.990Z,101447.41
2023-03-04T09:43:37.017Z,101452.31
2023-03-04T09:46:06.560Z,101444.28
2023-03-04T09:48:41.643Z,101444.06
2023-03-04T09:51:19.977Z,101445.03
2023-03-04T09:53:54.903Z,101450.75
2023-03-04T09:56:23.133Z,101452.63
2023-03-04T09:58:58.122Z,101447.72
2023-03-04T10:01:32.435Z,101447.16
2023-03-04T10:04:05.579Z,101448.78
2023-03-04T10:06:33.671Z,101448.50
2023-03-04T10:09:04.386Z,101446.13
2023-03-04T10:11:36.438Z,101440.72
2023-03-04T10:14:19.624Z,101437.19
2023-03-04T10:16:50.729Z,101435.63
2023-03-04T10:19:26.760Z,101433.09
2023-03-04T10:21:54.311Z,101433.25
2023-03-04T10:24:25.051Z,101426.44
2023-03-04T10:26:54.118Z,101431.47
2023-03-04T10:29:24.408Z,101424.63
2023-03-04T10:31:52.183Z,101421.94
2023-03-04T10:34:19.773Z,101425.63
2023-03-04T10:36:55.837Z,101421.28
2023-03-04T10:39:27.515Z,101419.28
2023-03-04T10:41:58.425Z,101414.97
2023-03-04T10:44:26.409Z,101425.19
2023-03-04T10:46:55.731Z,101426.41
2023-03-04T10:49:25.229Z,101413.19
2023-03-04T10:51:57.671Z,101416.94
2023-03-04T10:54:28.139Z,101416.38
2023-03-04T10:56:58.343Z,101413.63
2023-03-04T10:59:42.161Z,101410.13
2023-03-04T11:02:19.494Z,101402.94
2023-03-04T11:04:52.967Z,101392.50
2023-03-04T11:07:22.429Z,101396.97
2023-03-04T11:09:49.978Z,101395.31
2023-03-04T11:12:18.907Z,101397.38
2023-03-04T11:14:49.104Z,101392.47
2023-03-04T11:17:23.134Z,101393.78
2023-03-04T11:19:55.731Z,101393.91
2023-03-04T11:22:25.339Z,101386.06
2023-03-04T11:24:59.603Z,101385.78
2023-03-04T11:27:35.646Z,101385.56
2023-03-04T11:30:14.505Z,101386.66
2023-03-04T11:32:45.079Z,101393.28
2023-03-04T11:35:17.219Z,101385.94
2023-03-04T11:37:52.209Z,101386.22
2023-03-04T11:40:24.811Z,101387.94
2023-03-04T11:42:53.932Z,101378.88
2023-03-04T11:45:29.699Z,101374.97
2023-03-04T11:48:05.835Z,101380.13
2023-03-04T11:50:45.418Z,101372.75
2023-03-04T11:53:24.899Z,101373.28
2023-03-04T11:55:57.987Z,101369.97
2023-03-04T11:58:43.419Z,101366.22
2023-03-04T12:01:11.807Z,101367.31
2023-03-04T12:04:08.623Z,101364.41
2023-03-04T12:06:45.719Z,101356.56
2023-03-04T12:09:22.902Z,101361.75
2023-03-04T12:11:58.513Z,101352.28
2023-03-04T12:14:30.530Z,101354.22
2023-03-04T12:17:13.032Z,101346.44
2023-03-04T12:19:51.546Z,101352.56
2023-03-04T12:22:29.249Z,101339.91
2023-03-04T12:25:26.197Z,101341.28
2023-03-04T12:28:02.844Z,101338.63
2023-03-04T12:30:38.213Z,101334.03
2023-03-04T12:33:14.166Z,101333.91
2023-03-04T12:35:43.506Z,101321.41
2023-03-04T12:38:23.243Z,101325.97
2023-03-04T12:40:56.320Z,101331.63
2023-03-04T12:43:35.682Z,101325.03
2023-03-04T12:46:13.013Z,101324.78
2023-03-04T12:48:42.966Z,101313.63
2023-03-04T12:51:29.708Z,101306.91
2023-03-04T12:54:07.173Z,101296.59
2023-03-04T12:56:39.703Z,101301.31
2023-03-04T12:59:08.684Z,101291.50
2023-03-04T13:01:42.507Z,101288.91
2023-03-04T13:04:14.181Z,101281.81
2023-03-04T13:06:45.269Z,101287.78
2023-03-04T13:09:17.437Z,101276.75
2023-03-04T13:12:03.776Z,101277.97
2023-03-04T13:14:33.196Z,101279.41
2023-03-04T13:17:16.822Z,101270.19
2023-03-04T13:19:47.276Z,101275.91
2023-03-04T13:22:42.766Z,101265.97
2023-03-04T13:25:32.444Z,101266.63
2023-03-04T13:28:28.424Z,101256.78
2023-03-04T13:31:21.581Z,101256.28
2023-03-04T13:34:01.558Z,101250.31
2023-03-04T13:36:34.899Z,101248.81
2023-03-04T13:39:04.684Z,101235.56
2023-03-04T13:41:34.225Z,101240.31
2023-03-04T13:44:04.352Z,101236.63
2023-03-04T13:46:44.452Z,101242.09
2023-03-04T13:49:21.253Z,101238.41
2023-03-04T13:51:49.877Z,101238.13
2023-03-04T13:54:18.562Z,101238.41
2023-03-04T13:56:47.651Z,101237.59
2023-03-04T13:59:35.023Z,101231.16
2023-03-04T14:02:04.735Z,101235.44
2023-03-04T14:04:34.734Z,101233.25
2023-03-04T14:07:03.907Z,101223.25
2023-03-04T14:09:33.352Z,101222.25
2023-03-04T14:12:03.816Z,101229.09
2023-03-04T14:14:37.671Z,101228.78
2023-03-04T14:17:06.529Z,101221.94
2023-03-04T14:19:38.471Z,101210.34
2023-03-04T14:22:21.465Z,101213.69
2023-03-04T14:24:57.373Z,101216.19
2023-03-04T14:27:25.104Z,101224.13
2023-03-04T14:29:58.146Z,101219.03
2023-03-04T14:32:26.462Z,101206.16
2023-03-04T14:34:57.560Z,101208.44
2023-03-04T14:37:27.256Z,101205.06
2023-03-04T14:39:57.923Z,101205.50
2023-03-04T14:42:26.850Z,101196.63
2023-03-04T14:44:57.746Z,101199.84
2023-03-04T14:47:30.082Z,101195.88
2023-03-04T14:49:57.911Z,101193.97
2023-03-04T14:52:34.396Z,101184.53
2023-03-04T14:55:05.736Z,101188.53
2023-03-04T14:57:35.814Z,101185.53
2023-03-04T15:00:29.656Z,101184.69
2023-03-04T15:02:58.722Z,101178.19
2023-03-04T15:05:28.539Z,101177.34
2023-03-04T15:07:57.708Z,101177.00
2023-03-04T15:10:27.244Z,101177.03
2023-03-04T15:12:56.312Z,101175.09
2023-03-04T15:15:39.810Z,101172.00
2023-03-04T15:18:18.498Z,101171.81
2023-03-04T15:20:55.038Z,101173.41
2023-03-04T15:23:22.835Z,101162.00
2023-03-04T15:25:53.408Z,101165.22
2023-03-04T15:28:21.638Z,101163.19
2023-03-04T15:30:51.369Z,101158.19
2023-03-04T15:33:21.158Z,101161.16
2023-03-04T15:35:54.282Z,101154.97
2023-03-04T15:38:22.428Z,101152.69
2023-03-04T15:40:50.092Z,101156.09
2023-03-04T15:43:19.146Z,101157.94
2023-03-04T15:45:48.057Z,101157.56
2023-03-04T15:48:18.459Z,101165.28
2023-03-04T15:50:49.450Z,101159.22
2023-03-04T15:53:19.323Z,101157.13
2023-03-04T15:55:47.769Z,101162.59
2023-03-04T15:58:17.264Z,101163.91
2023-03-04T16:00:46.760Z,101163.50
2023-03-04T16:03:18.168Z,101170.94
2023-03-04T16:05:47.650Z,101160.78
2023-03-04T16:08:17.858Z,101161.22
2023-03-04T16:10:46.003Z,101155.88
2023-03-04T16:13:14.823Z,101162.94
2023-03-04T16:15:43.209Z,101161.47
2023-03-04T16:18:11.796Z,101152.81
2023-03-04T16:20:42.090Z,101157.69
2023-03-04T16:23:12.248Z,101149.44
2023-03-04T16:25:39.981Z,101150.31
2023-03-04T16:28:07.828Z,101154.91
2023-03-04T16:30:35.553Z,101154.47
2023-03-04T16:33:03.178Z,101153.91
2023-03-04T16:35:30.892Z,101153.63
2023-03-04T16:37:59.865Z,101158.88
2023-03-04T16:40:29.783Z,101147.75
2023-03-04T16:42:58.019Z,101143.63
2023-03-04T16:45:30.839Z,101146.28
2023-03-04T16:47:58.456Z,101152.44
2023-03-04T16:50:28.303Z,101151.59
2023-03-04T16:52:56.939Z,101158.09
2023-03-04T16:55:28.125Z,101163.09
2023-03-04T16:57:57.721Z,101152.25
2023-03-04T17:00:27.987Z,101151.75
2023-03-04T17:02:57.941Z,101149.81
2023-03-04T17:05:27.743Z,101153.13
2023-03-04T17:07:55.437Z,101149.25
2023-03-04T17:10:23.765Z,101146.72
2023-03-04T17:12:52.800Z,101160.56
2023-03-04T17:15:20.659Z,101154.28
2023-03-04T17:17:48.809Z,101151.19
2023-03-04T17:20:18.433Z,101159.44
2023-03-04T17:22:46.570Z,101159.06
2023-03-04T17:25:14.883Z,101148.91
2023-03-04T17:27:43.300Z,101153.59
2023-03-04T17:30:15.436Z,101157.88
2023-03-04T17:32:43.321Z,101167.97
2023-03-04T17:35:12.088Z,101170.41
2023-03-04T17:37:41.638Z,101163.50
2023-03-04T17:40:14.077Z,101169.34
2023-03-04T17:42:42.192Z,101173.53
2023-03-04T17:45:12.646Z,101176.06
2023-03-04T17:47:40.269Z,101171.44
2023-03-04T17:50:10.412Z,101165.56
2023-03-04T17:52:38.521Z,101170.44
2023-03-04T17:55:07.084Z,101174.34
2023-03-04T17:57:37.279Z,101168.22
2023-03-04T18:00:05.579Z,101172.78
2023-03-04T18:02:34.688Z,101165.00
2023-03-04T18:05:05.797Z,101167.91
2023-03-04T18:07:33.503Z,101165.16
2023-03-04T18:10:01.341Z,101165.97
2023-03-04T18:12:29.229Z,101165.16
2023-03-04T18:14:58.678Z,101154.44
2023-03-04T18:17:26.483Z,101152.97
2023-03-04T18:19:56.706Z,101147.66
2023-03-04T18:22:24.352Z,101140.69
2023-03-04T18:24:52.086Z,101145.81
2023-03-04T18:27:19.646Z,101144.91
2023-03-04T18:29:47.450Z,101138.19
2023-03-04T18:32:15.353Z,101140.16
2023-03-04T18:34:43.144Z,101157.00
2023-03-04T18:37:12.261Z,101142.25
2023-03-04T18:39:40.145Z,101144.59
2023-03-04T18:42:07.750Z,101145.69
2023-03-04T18:44:35.424Z,101147.38
2023-03-04T18:47:03.113Z,101140.38
2023-03-04T18:49:30.913Z,101146.94
2023-03-04T18:51:58.529Z,101145.03
2023-03-04T18:54:27.552Z,101149.00
2023-03-04T18:56:58.727Z,101150.16
2023-03-04T18:59:31.261Z,101144.25
2023-03-04T19:02:00.011Z,101143.56
2023-03-04T19:04:31.268Z,101147.16
2023-03-04T19:07:00.286Z,101139.88
2023-03-04T19:09:31.321Z,101146.25
2023-03-04T19:11:58.926Z,101142.97
2023-03-04T19:14:26.698Z,101151.00
2023-03-04T19:16:54.431Z,101145.69
2023-03-04T19:19:22.130Z,101152.41
2023-03-04T19:21:49.886Z,101147.13
2023-03-04T19:24:17.468Z,101145.59
2023-03-04T19:26:46.503Z,101148.38
2023-03-04T19:29:15.112Z,101137.00
2023-03-04T19:31:43.105Z,101149.34
2023-03-04T19:34:10.870Z,101154.69
2023-03-04T19:36:40.529Z,101153.97
2023-03-04T19:39:09.679Z,101153.44
2023-03-04T19:41:37.463Z,101147.16
2023-03-04T19:44:06.526Z,101147.75
2023-03-04T19:46:34.607Z,101149.00
2023-03-04T19:49:05.116Z,101146.22
2023-03-04T19:51:33.225Z,101153.47
2023-03-04T19:54:01.799Z,101151.66
2023-03-04T19:56:29.955Z,101145.09
2023-03-04T19:58:58.079Z,101149.09
2023-03-04T20:01:34.556Z,101159.97
2023-03-04T20:04:03.671Z,101156.09
2023-03-04T20:06:31.678Z,101153.59
2023-03-04T20:09:00.728Z,101151.47
2023-03-04T20:11:30.986Z,101140.66
2023-03-04T20:13:59.375Z,101139.94
2023-03-04T20:16:28.578Z,101143.72
2023-03-04T20:18:57.901Z,101142.78
2023-03-04T20:21:26.275Z,101139.28
2023-03-04T20:23:53.963Z,101144.28
2023-03-04T20:26:24.047Z,101129.56
2023-03-04T20:28:51.872Z,101133.28
2023-03-04T20:31:24.638Z,101136.63
2023-03-04T20:33:55.108Z,101143.84
2023-03-04T20:36:24.336Z,101141.09
2023-03-04T20:39:01.459Z,101135.78
2023-03-04T20:41:29.979Z,101141.78
2023-03-04T20:44:02.537Z,101127.88
2023-03-04T20:46:38.068Z,101137.91
2023-03-04T20:49:08.765Z,101147.78
2023-03-04T20:51:39.486Z,101147.50
2023-03-04T20:54:08.008Z,101142.31
2023-03-04T20:56:36.500Z,101137.44
2023-03-04T20:59:05.470Z,101138.56
2023-03-04T21:01:34.012Z,101141.78
2023-03-04T21:04:02.273Z,101145.56
2023-03-04T21:06:32.392Z,101147.78
2023-03-04T21:09:02.957Z,101146.09
2023-03-04T21:11:30.534Z,101142.88
2023-03-04T21:13:58.645Z,101137.34
2023-03-04T21:16:27.968Z,101136.06
2023-03-04T21:18:55.787Z,101129.00
2023-03-04T21:21:26.411Z,101122.47
2023-03-04T21:23:56.805Z,101135.13
2023-03-04T21:26:24.924Z,101128.28
2023-03-04T21:28:54.064Z,101128.44
2023-03-04T21:31:24.669Z,101129.41
2023-03-04T21:33:53.133Z,101134.66
2023-03-04T21:36:21.674Z,101130.50
2023-03-04T21:38:49.649Z,101120.78
2023-03-04T21:41:20.734Z,101123.25
2023-03-04T21:43:48.676Z,101121.31
2023-03-04T21:46:17.618Z,101125.38
2023-03-04T21:48:47.755Z,101126.75
2023-03-04T21:51:16.936Z,101117.44
2023-03-04T21:53:44.834Z,101123.16
2023-03-04T21:56:13.321Z,101122.88
2023-03-04T21:58:42.516Z,101111.03
2023-03-04T22:01:11.088Z,101114.66
2023-03-04T22:03:38.826Z,101111.06
2023-03-04T22:06:07.403Z,101116.19
2023-03-04T22:08:35.177Z,101110.78
2023-03-04T22:11:04.422Z,101106.88
2023-03-04T22:13:32.424Z,101112.00
2023-03-04T22:16:04.107Z,101110.22
2023-03-04T22:18:32.336Z,101101.72
2023-03-04T22:21:01.496Z,101097.09
2023-03-04T22:23:40.314Z,101100.44
2023-03-04T22:26:09.610Z,101102.66
2023-03-04T22:28:39.724Z,101100.91
2023-03-04T22:31:16.676Z,101086.16
2023-03-04T22:33:44.804Z,101100.88
2023-03-04T22:36:15.593Z,101096.31
2023-03-04T22:38:44.485Z,101105.47
2023-03-04T22:41:16.776Z,101101.44
2023-03-04T22:43:44.689Z,101110.34
2023-03-04T22:46:14.792Z,101102.81
2023-03-04T22:48:42.640Z,101101.59
2023-03-04T22:51:10.856Z,101108.66
2023-03-04T22:53:38.826Z,101099.22
2023-03-04T22:56:06.553Z,101088.94
2023-03-04T22:58:34.535Z,101087.97
2023-03-04T23:01:02.527Z,101093.50
2023-03-04T23:03:31.925Z,101093.09
2023-03-04T23:06:04.744Z,101097.66
2023-03-04T23:08:32.586Z,101088.53
2023-03-04T23:11:00.291Z,101098.50
2023-03-04T23:13:29.199Z,101095.16
2023-03-04T23:15:56.819Z,101091.00
2023-03-04T23:18:24.608Z,101080.59
2023-03-04T23:20:53.612Z,101085.75
2023-03-04T23:23:21.227Z,101083.78
2023-03-04T23:25:51.898Z,101090.31
2023-03-04T23:28:19.848Z,101088.94
2023-03-04T23:30:47.560Z,101080.03
2023-03-04T23:33:15.552Z,101086.84
2023-03-04T23:35:43.270Z,101085.19
2023-03-04T23:38:12.739Z,101084.63
2023-03-04T23:40:40.547Z,101084.50
2023-03-04T23:43:08.264Z,101090.63
2023-03-04T23:45:36.040Z,101081.28
2023-03-04T23:48:03.681Z,101085.19
2023-03-04T23:50:32.117Z,101088.50
2023-03-04T23:52:59.866Z,101082.94
2023-03-04T23:55:29.247Z,101082.13
2023-03-04T23:57:56.951Z,101076.53
